Cape Texel — V7RC4 — position and weather

sailwx.info

Track history (hours):
 
Tides and Currents Weather Stations Pressure Air Temp Water Temp Dewpoint Dewpoint Depression Visibility Wind Speed Wind Dir Waves Ship Positions

Cape Texel

Last reported at 2014-Jul-14 05:29 UTC. Time now 2014-Jul-30 05:11 UTC.
Position N 29°56' W 090°11'.
Warning: this ship's position is 15 days out of date.

Length 228 m; draft 8.1 m.

Type: Ship (hazmat cat A). MMSI: 538090383.

Date/timePositionNaut miles runAvg speedWind from/ knotsBaromVisibWave heightAir tempDewpointWater temp
2014-Jul-14 05:29N 29°56' W 090°11'12 8.9
2014-Jul-14 04:08N 29°59' W 090°24'0 0.0
2014-Jul-12 14:26N 29°59' W 090°24'0 0.0
2014-Jul-12 13:33N 29°59' W 090°24'0 0.0
2014-Jul-12 12:33N 29°59' W 090°24'0 0.0
2014-Jul-12 11:33N 29°59' W 090°24'0 0.0
2014-Jul-12 10:32N 29°59' W 090°24'0 0.0
2014-Jul-12 09:33N 29°59' W 090°24'0 0.0
2014-Jul-12 08:33N 29°59' W 090°24'0 0.0
2014-Jul-12 07:33N 29°59' W 090°24'0 0.0
2014-Jul-12 06:33N 29°59' W 090°24'0 0.0
2014-Jul-12 05:33N 29°59' W 090°24'5 4.5
2014-Jul-12 04:33N 29°56' W 090°20'9 9.0
2014-Jul-12 03:33N 29°57' W 090°10'  
2014-Jul-05 19:32N 25°45' W 079°51'1010.2
2014-Jul-05 18:33N 25°54' W 079°55'1110.9
2014-Jul-05 17:33N 26°02' W 080°02'5 5.0
2014-Jul-05 16:28N 26°05' W 080°07'0 0.0
2014-Jul-05 15:28N 26°05' W 080°07'0 0.0
2014-Jul-05 14:28N 26°05' W 080°07'0 0.0
2014-Jul-05 13:28N 26°05' W 080°07'0 0.0
2014-Jul-05 12:31N 26°05' W 080°07'0 0.0
2014-Jul-05 11:31N 26°05' W 080°07'0 0.0
2014-Jul-05 10:31N 26°05' W 080°07'0 0.0
2014-Jul-05 09:31N 26°05' W 080°07'0 0.0
2014-Jul-05 08:31N 26°05' W 080°07'0 0.0
2014-Jul-05 07:31N 26°05' W 080°07'0 0.0
2014-Jul-05 06:31N 26°05' W 080°07'0 0.0
2014-Jul-05 05:31N 26°05' W 080°07'0 0.0
2014-Jul-05 04:25N 26°05' W 080°07'0 0.0
2014-Jul-05 03:25N 26°05' W 080°07'0 0.0
2014-Jul-05 02:25N 26°05' W 080°07'0 0.0
2014-Jul-05 01:28N 26°05' W 080°07'0 0.0
2014-Jul-05 00:28N 26°05' W 080°07'0 0.0
2014-Jul-04 23:28N 26°05' W 080°07'0 0.0
2014-Jul-04 22:28N 26°05' W 080°07'0 0.0
2014-Jul-04 21:31N 26°05' W 080°07'0 0.0
2014-Jul-04 20:31N 26°05' W 080°07'0 0.0
2014-Jul-04 19:28N 26°05' W 080°07'0 0.0
2014-Jul-04 18:31N 26°05' W 080°07'0 0.0
2014-Jul-04 17:31N 26°05' W 080°07'0 0.0
2014-Jul-04 16:31N 26°05' W 080°07'0 0.0
2014-Jul-04 15:31N 26°05' W 080°07'0 0.0
2014-Jul-04 14:31N 26°05' W 080°07'0 0.0
2014-Jul-04 13:25N 26°05' W 080°07'0 0.0
2014-Jul-04 12:25N 26°05' W 080°07'0 0.0
2014-Jul-04 11:25N 26°05' W 080°07'0 0.0
2014-Jul-04 10:25N 26°05' W 080°07'0 0.0
2014-Jul-04 09:28N 26°05' W 080°07'0 0.0
2014-Jul-04 08:28N 26°05' W 080°07'0 0.0
2014-Jul-04 07:31N 26°05' W 080°07'0 0.0
2014-Jul-04 06:31N 26°05' W 080°07'0 0.0
2014-Jul-04 05:31N 26°05' W 080°07'  
Track history (hours):
 
Tides and Currents Weather Stations Pressure Air Temp Water Temp Dewpoint Dewpoint Depression Visibility Wind Speed Wind Dir Waves Ship Positions

Cape Texel

Last reported at 2014-Jul-14 05:29 UTC. Time now 2014-Jul-30 05:11 UTC.
Position N 29°56' W 090°11'.
Warning: this ship's position is 15 days out of date.

Length 228 m; draft 8.1 m.

Type: Ship (hazmat cat A). MMSI: 538090383.

Date/timePositionNaut miles runAvg speedWind from/ knotsBaromVisibWave heightAir tempDewpointWater temp
2014-Jul-14 05:29N 29°56' W 090°11'12 8.9
2014-Jul-14 04:08N 29°59' W 090°24'0 0.0
2014-Jul-12 14:26N 29°59' W 090°24'0 0.0
2014-Jul-12 13:33N 29°59' W 090°24'0 0.0
2014-Jul-12 12:33N 29°59' W 090°24'0 0.0
2014-Jul-12 11:33N 29°59' W 090°24'0 0.0
2014-Jul-12 10:32N 29°59' W 090°24'0 0.0
2014-Jul-12 09:33N 29°59' W 090°24'0 0.0
2014-Jul-12 08:33N 29°59' W 090°24'0 0.0
2014-Jul-12 07:33N 29°59' W 090°24'0 0.0
2014-Jul-12 06:33N 29°59' W 090°24'0 0.0
2014-Jul-12 05:33N 29°59' W 090°24'5 4.5
2014-Jul-12 04:33N 29°56' W 090°20'9 9.0
2014-Jul-12 03:33N 29°57' W 090°10'  
2014-Jul-05 19:32N 25°45' W 079°51'1010.2
2014-Jul-05 18:33N 25°54' W 079°55'1110.9
2014-Jul-05 17:33N 26°02' W 080°02'5 5.0
2014-Jul-05 16:28N 26°05' W 080°07'0 0.0
2014-Jul-05 15:28N 26°05' W 080°07'0 0.0
2014-Jul-05 14:28N 26°05' W 080°07'0 0.0
2014-Jul-05 13:28N 26°05' W 080°07'0 0.0
2014-Jul-05 12:31N 26°05' W 080°07'0 0.0
2014-Jul-05 11:31N 26°05' W 080°07'0 0.0
2014-Jul-05 10:31N 26°05' W 080°07'0 0.0
2014-Jul-05 09:31N 26°05' W 080°07'0 0.0
2014-Jul-05 08:31N 26°05' W 080°07'0 0.0
2014-Jul-05 07:31N 26°05' W 080°07'0 0.0
2014-Jul-05 06:31N 26°05' W 080°07'0 0.0
2014-Jul-05 05:31N 26°05' W 080°07'0 0.0
2014-Jul-05 04:25N 26°05' W 080°07'0 0.0
2014-Jul-05 03:25N 26°05' W 080°07'0 0.0
2014-Jul-05 02:25N 26°05' W 080°07'0 0.0
2014-Jul-05 01:28N 26°05' W 080°07'0 0.0
2014-Jul-05 00:28N 26°05' W 080°07'0 0.0
2014-Jul-04 23:28N 26°05' W 080°07'0 0.0
2014-Jul-04 22:28N 26°05' W 080°07'0 0.0
2014-Jul-04 21:31N 26°05' W 080°07'0 0.0
2014-Jul-04 20:31N 26°05' W 080°07'0 0.0
2014-Jul-04 19:28N 26°05' W 080°07'0 0.0
2014-Jul-04 18:31N 26°05' W 080°07'0 0.0
2014-Jul-04 17:31N 26°05' W 080°07'0 0.0
2014-Jul-04 16:31N 26°05' W 080°07'0 0.0
2014-Jul-04 15:31N 26°05' W 080°07'0 0.0
2014-Jul-04 14:31N 26°05' W 080°07'0 0.0
2014-Jul-04 13:25N 26°05' W 080°07'0 0.0
2014-Jul-04 12:25N 26°05' W 080°07'0 0.0
2014-Jul-04 11:25N 26°05' W 080°07'0 0.0
2014-Jul-04 10:25N 26°05' W 080°07'0 0.0
2014-Jul-04 09:28N 26°05' W 080°07'0 0.0
2014-Jul-04 08:28N 26°05' W 080°07'0 0.0
2014-Jul-04 07:31N 26°05' W 080°07'0 0.0
2014-Jul-04 06:31N 26°05' W 080°07'0 0.0
2014-Jul-04 05:31N 26°05' W 080°07'  

Dump ship's entire track history